createdAt,value
2018-04-09T00:02:11.013Z,15.50
2018-04-09T00:04:38.072Z,15.40
2018-04-09T00:07:04.933Z,15.30
2018-04-09T00:09:31.877Z,15.30
2018-04-09T00:11:58.731Z,15.20
2018-04-09T00:14:25.584Z,15.10
2018-04-09T00:16:52.555Z,15.10
2018-04-09T00:19:19.511Z,15.00
2018-04-09T00:21:46.363Z,15.10
2018-04-09T00:24:13.213Z,15.10
2018-04-09T00:26:40.071Z,15.20
2018-04-09T00:29:06.910Z,15.20
2018-04-09T00:31:34.162Z,15.20
2018-04-09T00:34:01.468Z,15.20
2018-04-09T00:36:28.340Z,15.30
2018-04-09T00:38:55.181Z,15.20
2018-04-09T00:41:22.027Z,15.20
2018-04-09T00:43:48.881Z,15.10
2018-04-09T00:46:15.724Z,15.20
2018-04-09T00:48:43.026Z,15.10
2018-04-09T00:51:09.873Z,15.10
2018-04-09T00:53:48.692Z,15.10
2018-04-09T00:56:15.989Z,15.00
2018-04-09T00:58:42.832Z,15.00
2018-04-09T01:01:09.696Z,15.00
2018-04-09T01:03:36.549Z,15.10
2018-04-09T01:06:03.421Z,15.00
2018-04-09T01:08:30.374Z,15.00
2018-04-09T01:10:57.289Z,15.00
2018-04-09T01:13:24.191Z,15.00
2018-04-09T01:15:51.145Z,14.90
2018-04-09T01:18:18.105Z,14.80
2018-04-09T01:20:45.068Z,14.80
2018-04-09T01:23:12.052Z,14.60
2018-04-09T01:25:38.909Z,14.60
2018-04-09T01:28:05.764Z,14.60
2018-04-09T01:30:32.609Z,14.60
2018-04-09T01:32:59.456Z,14.60
2018-04-09T01:35:26.317Z,14.60
2018-04-09T01:37:53.156Z,14.60
2018-04-09T01:40:20.016Z,14.60
2018-04-09T01:42:46.890Z,14.40
2018-04-09T01:45:13.732Z,14.30
2018-04-09T01:47:40.609Z,14.30
2018-04-09T01:50:07.457Z,14.40
2018-04-09T01:52:34.313Z,14.40
2018-04-09T01:55:01.160Z,14.40
2018-04-09T01:57:28.037Z,14.30
2018-04-09T01:59:54.988Z,14.40
2018-04-09T02:02:21.941Z,14.40
2018-04-09T02:04:48.821Z,14.30
2018-04-09T02:07:15.657Z,14.30
2018-04-09T02:09:42.525Z,14.30
2018-04-09T02:12:09.477Z,14.20
2018-04-09T02:14:36.434Z,14.10
2018-04-09T02:17:03.295Z,14.10
2018-04-09T02:19:30.150Z,14.00
2018-04-09T02:21:56.992Z,14.00
2018-04-09T02:24:23.872Z,14.00
2018-04-09T02:26:50.733Z,14.10
2018-04-09T02:29:17.682Z,14.10
2018-04-09T02:31:44.529Z,14.10
2018-04-09T02:34:11.505Z,14.00
2018-04-09T02:36:38.421Z,14.10
2018-04-09T02:39:05.657Z,14.20
2018-04-09T02:41:32.524Z,14.20
2018-04-09T02:43:59.458Z,14.30
2018-04-09T02:46:26.289Z,14.30
2018-04-09T02:48:53.154Z,14.40
2018-04-09T02:51:20.004Z,14.40
2018-04-09T02:53:46.866Z,14.30
2018-04-09T02:56:13.721Z,14.30
2018-04-09T02:58:40.573Z,14.30
2018-04-09T03:01:07.446Z,14.30
2018-04-09T03:03:34.398Z,14.30
2018-04-09T03:06:01.354Z,14.30
2018-04-09T03:08:28.207Z,14.30
2018-04-09T03:10:55.096Z,14.20
2018-04-09T03:13:21.962Z,14.10
2018-04-09T03:15:48.893Z,14.10
2018-04-09T03:18:15.734Z,14.00
2018-04-09T03:20:42.704Z,14.00
2018-04-09T03:23:09.561Z,13.90
2018-04-09T03:25:36.421Z,13.80
2018-04-09T03:28:03.285Z,13.60
2018-04-09T03:30:30.125Z,13.60
2018-04-09T03:32:56.985Z,13.50
2018-04-09T03:35:23.842Z,13.50
2018-04-09T03:37:50.812Z,13.40
2018-04-09T03:40:17.661Z,13.40
2018-04-09T03:42:44.517Z,13.40
2018-04-09T03:45:11.472Z,13.30
2018-04-09T03:47:38.333Z,13.20
2018-04-09T03:50:05.197Z,13.20
2018-04-09T03:52:32.294Z,13.20
2018-04-09T03:54:59.136Z,13.30
2018-04-09T03:57:26.073Z,13.40
2018-04-09T03:59:52.913Z,13.40
2018-04-09T04:02:19.789Z,13.40
2018-04-09T04:04:46.644Z,13.40
2018-04-09T04:07:13.501Z,13.40
2018-04-09T04:09:40.501Z,13.30
2018-04-09T04:12:07.333Z,13.30
2018-04-09T04:14:34.273Z,13.20
2018-04-09T04:17:13.116Z,13.10
2018-04-09T04:19:51.969Z,13.10
2018-04-09T04:22:18.917Z,12.90
2018-04-09T04:24:45.763Z,12.90
2018-04-09T04:27:12.822Z,13.00
2018-04-09T04:29:40.047Z,12.90
2018-04-09T04:32:06.898Z,12.90
2018-04-09T04:34:33.904Z,12.80
2018-04-09T04:37:01.155Z,12.90
2018-04-09T04:39:28.545Z,13.10
2018-04-09T04:41:55.401Z,13.10
2018-04-09T04:44:22.261Z,13.10
2018-04-09T04:46:49.114Z,13.10
2018-04-09T04:49:15.976Z,13.10
2018-04-09T04:51:42.933Z,13.10
2018-04-09T04:54:09.828Z,13.20
2018-04-09T04:56:36.726Z,13.20
2018-04-09T04:59:04.047Z,13.20
2018-04-09T05:01:30.890Z,13.20
2018-04-09T05:03:57.752Z,13.20
2018-04-09T05:06:24.687Z,13.20
2018-04-09T05:08:51.557Z,13.20
2018-04-09T05:11:18.609Z,13.10
2018-04-09T05:13:45.466Z,13.00
2018-04-09T05:16:12.326Z,13.20
2018-04-09T05:18:39.192Z,13.10
2018-04-09T05:21:06.140Z,13.10
2018-04-09T05:23:33.098Z,13.10
2018-04-09T05:25:59.950Z,13.10
2018-04-09T05:28:26.804Z,13.10
2018-04-09T05:30:53.677Z,13.20
2018-04-09T05:33:20.543Z,13.20
2018-04-09T05:35:47.442Z,13.30
2018-04-09T05:38:14.292Z,13.40
2018-04-09T05:40:41.205Z,13.30
2018-04-09T05:43:08.043Z,13.30
2018-04-09T05:45:35.007Z,13.40
2018-04-09T05:48:02.283Z,13.50
2018-04-09T05:50:29.141Z,13.50
2018-04-09T05:52:56.047Z,13.60
2018-04-09T05:55:22.892Z,13.70
2018-04-09T05:57:49.812Z,13.80
2018-04-09T06:00:16.656Z,13.90
2018-04-09T06:02:43.496Z,13.90
2018-04-09T06:05:10.377Z,14.00
2018-04-09T06:07:37.247Z,14.10
2018-04-09T06:10:04.200Z,14.20
2018-04-09T06:12:31.061Z,14.30
2018-04-09T06:14:57.943Z,14.40
2018-04-09T06:17:24.884Z,14.40
2018-04-09T06:19:51.742Z,14.50
2018-04-09T06:22:18.604Z,14.50
2018-04-09T06:24:45.532Z,14.50
2018-04-09T06:27:12.383Z,14.60
2018-04-09T06:29:39.243Z,14.70
2018-04-09T06:32:06.137Z,14.80
2018-04-09T06:34:33.081Z,15.00
2018-04-09T06:36:59.945Z,15.10
2018-04-09T06:39:26.893Z,15.20
2018-04-09T06:41:53.856Z,15.30
2018-04-09T06:44:20.719Z,15.40
2018-04-09T06:46:47.597Z,15.50
2018-04-09T06:49:14.517Z,15.60
2018-04-09T06:51:41.369Z,15.70
2018-04-09T06:54:08.295Z,15.80
2018-04-09T06:56:35.532Z,16.00
2018-04-09T06:59:02.457Z,16.00
2018-04-09T07:01:29.335Z,16.20
2018-04-09T07:03:56.168Z,16.30
2018-04-09T07:06:23.133Z,16.20
2018-04-09T07:08:49.982Z,16.20
2018-04-09T07:11:16.824Z,16.30
2018-04-09T07:13:43.692Z,16.40
2018-04-09T07:16:10.661Z,16.50
2018-04-09T07:18:37.632Z,16.50
2018-04-09T07:21:04.572Z,16.60
2018-04-09T07:23:31.441Z,16.70
2018-04-09T07:25:58.350Z,16.80
2018-04-09T07:28:25.166Z,16.90
2018-04-09T07:30:52.030Z,17.10
2018-04-09T07:33:18.993Z,17.20
2018-04-09T07:35:45.929Z,17.30
2018-04-09T07:38:12.772Z,17.40
2018-04-09T07:40:39.747Z,17.60
2018-04-09T07:43:06.696Z,17.60
2018-04-09T07:45:33.647Z,17.80
2018-04-09T07:48:00.885Z,18.00
2018-04-09T07:50:28.193Z,18.10
2018-04-09T07:52:55.064Z,18.10
2018-04-09T07:55:22.009Z,18.20
2018-04-09T07:57:48.877Z,18.40
2018-04-09T08:00:15.738Z,18.60
2018-04-09T08:02:42.677Z,18.70
2018-04-09T08:05:09.534Z,18.80
2018-04-09T08:07:36.590Z,18.70
2018-04-09T08:10:03.817Z,18.80
2018-04-09T08:12:30.720Z,18.80
2018-04-09T08:14:57.582Z,18.90
2018-04-09T08:17:24.441Z,18.80
2018-04-09T08:19:51.495Z,18.70
2018-04-09T08:22:18.371Z,18.60
2018-04-09T08:24:45.250Z,18.50
2018-04-09T08:27:12.105Z,18.50
2018-04-09T08:29:39.033Z,18.60
2018-04-09T08:32:05.890Z,18.70
2018-04-09T08:34:32.761Z,18.80
2018-04-09T08:36:59.630Z,18.90
2018-04-09T08:39:26.561Z,19.00
2018-04-09T08:41:53.469Z,19.20
2018-04-09T08:44:20.326Z,19.40
2018-04-09T08:46:47.175Z,19.60
2018-04-09T08:49:14.051Z,19.60
2018-04-09T08:51:41.377Z,19.90
2018-04-09T08:54:08.243Z,19.90
2018-04-09T08:56:35.176Z,20.10
2018-04-09T08:59:02.125Z,20.20
2018-04-09T09:01:29.025Z,20.30
2018-04-09T09:03:55.864Z,20.30
2018-04-09T09:06:22.723Z,20.30
2018-04-09T09:08:49.580Z,20.30
2018-04-09T09:11:16.429Z,20.20
2018-04-09T09:13:43.301Z,20.30
2018-04-09T09:16:10.174Z,20.50
2018-04-09T09:18:37.025Z,20.60
2018-04-09T09:21:03.880Z,20.80
2018-04-09T09:23:30.720Z,21.00
2018-04-09T09:25:57.785Z,21.20
2018-04-09T09:28:24.836Z,21.30
2018-04-09T09:30:51.704Z,21.30
2018-04-09T09:33:18.571Z,21.30
2018-04-09T09:35:45.435Z,21.20
2018-04-09T09:38:12.360Z,21.30
2018-04-09T09:40:39.233Z,21.40
2018-04-09T09:43:06.088Z,21.50
2018-04-09T09:45:32.934Z,21.60
2018-04-09T09:48:00.002Z,21.70
2018-04-09T09:50:26.834Z,21.70
2018-04-09T09:52:53.769Z,21.70
2018-04-09T09:55:20.692Z,21.70
2018-04-09T09:57:47.561Z,21.50
2018-04-09T10:00:14.476Z,21.50
2018-04-09T10:02:41.329Z,21.60
2018-04-09T10:05:08.301Z,21.40
2018-04-09T10:07:35.152Z,21.20
2018-04-09T10:10:02.002Z,21.00
2018-04-09T10:12:28.863Z,20.90
2018-04-09T10:14:55.748Z,20.90
2018-04-09T10:17:22.716Z,21.00
2018-04-09T10:19:49.584Z,21.10
2018-04-09T10:22:16.520Z,21.10
2018-04-09T10:24:43.375Z,21.30
2018-04-09T10:27:10.217Z,21.40
2018-04-09T10:29:37.064Z,21.50
2018-04-09T10:32:03.932Z,21.60
2018-04-09T10:34:30.898Z,21.50
2018-04-09T10:36:58.119Z,21.70
2018-04-09T10:39:24.962Z,21.70
2018-04-09T10:41:51.871Z,21.70
2018-04-09T10:44:18.728Z,21.80
2018-04-09T10:46:45.600Z,21.80
2018-04-09T10:49:12.549Z,21.70
2018-04-09T10:51:39.410Z,21.80
2018-04-09T10:54:06.272Z,21.90
2018-04-09T10:56:33.229Z,22.00
2018-04-09T10:59:00.089Z,21.90
2018-04-09T11:01:27.044Z,21.90
2018-04-09T11:03:53.975Z,22.10
2018-04-09T11:06:20.856Z,22.20
2018-04-09T11:08:47.720Z,22.40
2018-04-09T11:11:14.582Z,22.50
2018-04-09T11:13:41.566Z,22.70
2018-04-09T11:16:08.501Z,22.60
2018-04-09T11:18:35.336Z,22.60
2018-04-09T11:21:02.201Z,22.70
2018-04-09T11:23:29.091Z,22.50
2018-04-09T11:25:55.970Z,22.50
2018-04-09T11:28:22.968Z,22.60
2018-04-09T11:30:49.827Z,22.60
2018-04-09T11:33:16.708Z,22.40
2018-04-09T11:35:43.541Z,22.50
2018-04-09T11:38:10.398Z,22.60
2018-04-09T11:40:37.251Z,22.60
2018-04-09T11:43:04.226Z,22.70
2018-04-09T11:45:31.179Z,22.70
2018-04-09T11:47:58.036Z,22.80
2018-04-09T11:50:24.890Z,23.00
2018-04-09T11:52:51.755Z,23.10
2018-04-09T11:55:18.619Z,23.20
2018-04-09T12:00:11.600Z,23.40
2018-04-09T12:02:38.459Z,23.50
2018-04-09T12:05:05.311Z,23.50
2018-04-09T12:07:32.268Z,23.50
2018-04-09T12:09:59.538Z,23.80
2018-04-09T12:12:26.596Z,23.80
2018-04-09T12:14:53.835Z,23.90
2018-04-09T12:17:21.100Z,23.70
2018-04-09T12:19:48.353Z,23.70
2018-04-09T12:22:16.031Z,23.70
2018-04-09T12:24:42.939Z,23.60
2018-04-09T12:27:09.788Z,23.40
2018-04-09T12:29:36.651Z,23.30
2018-04-09T12:32:03.499Z,23.50
2018-04-09T12:34:30.359Z,23.60
2018-04-09T12:36:57.226Z,23.50
2018-04-09T12:39:24.172Z,23.60
2018-04-09T12:41:51.471Z,23.90
2018-04-09T12:44:18.334Z,23.90
2018-04-09T12:46:45.272Z,24.10
2018-04-09T12:49:12.128Z,24.20
2018-04-09T12:51:38.979Z,24.30
2018-04-09T12:54:05.835Z,24.30
2018-04-09T12:56:32.675Z,24.30
2018-04-09T12:58:59.537Z,24.20
2018-04-09T13:01:26.404Z,24.10
2018-04-09T13:03:53.262Z,24.20
2018-04-09T13:06:20.118Z,24.40
2018-04-09T13:08:47.103Z,24.50
2018-04-09T13:11:14.017Z,24.60
2018-04-09T13:13:41.242Z,24.60
2018-04-09T13:16:08.168Z,24.60
2018-04-09T13:18:35.105Z,24.60
2018-04-09T13:21:01.970Z,24.70
2018-04-09T13:23:28.818Z,24.70
2018-04-09T13:25:55.677Z,24.80
2018-04-09T13:28:22.550Z,24.80
2018-04-09T13:30:49.511Z,24.60
2018-04-09T13:33:16.353Z,24.50
2018-04-09T13:35:43.500Z,24.30
2018-04-09T13:38:10.260Z,24.10
2018-04-09T13:40:37.135Z,24.10
2018-04-09T13:43:03.978Z,24.20
2018-04-09T13:45:30.839Z,24.20
2018-04-09T13:47:57.698Z,24.30
2018-04-09T13:50:24.537Z,24.30
2018-04-09T13:52:51.400Z,24.20
2018-04-09T13:55:18.991Z,24.10
2018-04-09T13:57:45.851Z,24.00
2018-04-09T14:00:12.693Z,24.10
2018-04-09T14:02:39.645Z,24.10
2018-04-09T14:05:06.906Z,24.00
2018-04-09T14:07:33.755Z,24.00
2018-04-09T14:10:01.001Z,23.80
2018-04-09T14:12:28.247Z,23.90
2018-04-09T14:14:55.114Z,23.90
2018-04-09T14:17:22.078Z,24.00
2018-04-09T14:19:48.993Z,24.10
2018-04-09T14:22:15.863Z,24.20
2018-04-09T14:24:42.810Z,24.30
2018-04-09T14:27:09.772Z,24.30
2018-04-09T14:29:36.650Z,24.30
2018-04-09T14:32:03.595Z,24.30
2018-04-09T14:34:30.467Z,24.20
2018-04-09T14:36:57.402Z,24.10
2018-04-09T14:39:24.266Z,24.00
2018-04-09T14:41:51.171Z,24.10
2018-04-09T14:44:18.015Z,24.10
2018-04-09T14:46:44.955Z,24.20
2018-04-09T14:49:11.771Z,24.20
2018-04-09T14:51:38.737Z,24.20
2018-04-09T14:54:05.997Z,24.10
2018-04-09T14:56:32.848Z,24.10
2018-04-09T14:58:59.715Z,24.00
2018-04-09T15:01:26.582Z,23.90
2018-04-09T15:03:53.547Z,23.90
2018-04-09T15:06:20.453Z,23.90
2018-04-09T15:08:47.318Z,23.90
2018-04-09T15:11:14.222Z,24.00
2018-04-09T15:13:41.075Z,23.90
2018-04-09T15:16:08.047Z,23.80
2018-04-09T15:18:34.880Z,23.80
2018-04-09T15:21:01.839Z,23.70
2018-04-09T15:23:28.719Z,23.70
2018-04-09T15:25:55.571Z,23.70
2018-04-09T15:28:22.462Z,23.70
2018-04-09T15:30:49.387Z,23.80
2018-04-09T15:33:16.250Z,23.90
2018-04-09T15:35:43.091Z,23.90
2018-04-09T15:38:10.055Z,23.90
2018-04-09T15:40:36.911Z,23.90
2018-04-09T15:43:03.766Z,24.00
2018-04-09T15:45:30.616Z,24.10
2018-04-09T15:47:57.478Z,24.10
2018-04-09T15:50:24.326Z,24.20
2018-04-09T15:52:51.167Z,24.20
2018-04-09T15:55:18.440Z,24.30
2018-04-09T15:57:45.409Z,24.30
2018-04-09T16:00:12.695Z,24.50
2018-04-09T16:02:39.563Z,24.50
2018-04-09T16:05:06.420Z,24.70
2018-04-09T16:07:40.115Z,24.90
2018-04-09T16:10:07.003Z,25.10
2018-04-09T16:12:33.829Z,25.40
2018-04-09T16:15:00.690Z,25.80
2018-04-09T16:17:27.558Z,26.10
2018-04-09T16:19:54.420Z,26.20
2018-04-09T16:22:21.286Z,26.40
2018-04-09T16:24:48.159Z,26.50
2018-04-09T16:27:15.111Z,26.60
2018-04-09T16:29:42.068Z,26.40
2018-04-09T16:32:09.002Z,26.10
2018-04-09T16:34:35.870Z,25.60
2018-04-09T16:37:02.742Z,25.20
2018-04-09T16:39:29.591Z,24.90
2018-04-09T16:41:56.535Z,24.60
2018-04-09T16:44:23.395Z,24.30
2018-04-09T16:46:50.339Z,24.10
2018-04-09T16:49:17.203Z,23.90
2018-04-09T16:51:44.071Z,23.60
2018-04-09T16:54:10.918Z,23.40
2018-04-09T16:56:37.813Z,23.20
2018-04-09T16:59:04.739Z,23.10
2018-04-09T17:01:31.685Z,22.90
2018-04-09T17:03:58.916Z,22.60
2018-04-09T17:06:25.819Z,22.70
2018-04-09T17:08:52.665Z,22.60
2018-04-09T17:11:19.644Z,22.60
2018-04-09T17:13:46.537Z,22.60
2018-04-09T17:16:13.467Z,22.60
2018-04-09T17:18:40.419Z,22.60
2018-04-09T17:21:07.370Z,22.60
2018-04-09T17:23:34.337Z,22.60
2018-04-09T17:26:01.182Z,22.60
2018-04-09T17:28:28.750Z,22.50
2018-04-09T17:30:55.633Z,22.40
2018-04-09T17:33:22.587Z,22.40
2018-04-09T17:35:49.451Z,22.30
2018-04-09T17:38:16.386Z,22.30
2018-04-09T17:40:43.320Z,22.20
2018-04-09T17:43:10.207Z,22.10
2018-04-09T17:45:37.156Z,22.10
2018-04-09T17:48:04.041Z,22.10
2018-04-09T17:50:30.902Z,22.00
2018-04-09T17:52:57.759Z,21.90
2018-04-09T17:55:24.730Z,21.80
2018-04-09T17:57:51.664Z,21.70
2018-04-09T18:00:18.712Z,21.70
2018-04-09T18:02:45.571Z,21.60
2018-04-09T18:05:12.473Z,21.50
2018-04-09T18:07:39.350Z,21.40
2018-04-09T18:10:06.254Z,21.30
2018-04-09T18:12:33.139Z,21.10
2018-04-09T18:14:59.995Z,21.00
2018-04-09T18:17:26.923Z,20.90
2018-04-09T18:19:53.800Z,20.90
2018-04-09T18:22:20.760Z,20.90
2018-04-09T18:24:47.623Z,20.80
2018-04-09T18:27:14.789Z,20.70
2018-04-09T18:29:41.723Z,20.60
2018-04-09T18:32:08.687Z,20.60
2018-04-09T18:34:35.568Z,20.50
2018-04-09T18:37:02.419Z,20.40
2018-04-09T18:39:29.361Z,20.40
2018-04-09T18:41:56.210Z,20.30
2018-04-09T18:44:23.080Z,20.20
2018-04-09T18:46:50.330Z,20.20
2018-04-09T18:49:17.398Z,20.10
2018-04-09T18:51:44.516Z,20.10
2018-04-09T18:54:11.807Z,19.90
2018-04-09T18:56:39.043Z,19.90
2018-04-09T18:59:06.286Z,19.90
2018-04-09T19:01:33.150Z,19.90
2018-04-09T19:04:00.127Z,19.80
2018-04-09T19:06:26.972Z,19.80
2018-04-09T19:08:53.843Z,19.70
2018-04-09T19:11:20.746Z,19.60
2018-04-09T19:13:47.704Z,19.50
2018-04-09T19:16:14.534Z,19.40
2018-04-09T19:18:41.390Z,19.40
2018-04-09T19:21:08.684Z,19.10
2018-04-09T19:23:35.691Z,19.10
2018-04-09T19:26:02.692Z,18.80
2018-04-09T19:28:29.562Z,18.80
2018-04-09T19:30:56.515Z,18.70
2018-04-09T19:33:23.365Z,18.60
2018-04-09T19:35:50.349Z,18.60
2018-04-09T19:38:17.192Z,18.70
2018-04-09T19:40:44.248Z,18.70
2018-04-09T19:43:11.104Z,18.70
2018-04-09T19:45:37.971Z,18.60
2018-04-09T19:48:04.928Z,18.60
2018-04-09T19:50:31.873Z,18.60
2018-04-09T19:52:58.748Z,18.60
2018-04-09T19:55:26.648Z,18.70
2018-04-09T19:57:53.496Z,18.70
2018-04-09T20:00:20.374Z,18.80
2018-04-09T20:02:47.291Z,18.80
2018-04-09T20:05:14.255Z,18.80
2018-04-09T20:07:41.099Z,18.90
2018-04-09T20:10:07.942Z,18.90
2018-04-09T20:12:35.203Z,18.90
2018-04-09T20:15:02.434Z,19.00
2018-04-09T20:17:29.339Z,19.00
2018-04-09T20:19:56.572Z,18.80
2018-04-09T20:22:23.419Z,18.80
2018-04-09T20:24:50.305Z,18.70
2018-04-09T20:27:17.140Z,18.60
2018-04-09T20:29:44.069Z,18.60
2018-04-09T20:32:11.027Z,18.60
2018-04-09T20:34:37.890Z,18.60
2018-04-09T20:37:04.742Z,18.50
2018-04-09T20:39:31.593Z,18.50
2018-04-09T20:41:58.453Z,18.50
2018-04-09T20:44:25.411Z,18.50
2018-04-09T20:46:52.384Z,18.40
2018-04-09T20:49:19.543Z,18.30
2018-04-09T20:51:46.517Z,18.20
2018-04-09T20:54:14.312Z,18.20
2018-04-09T20:56:41.227Z,18.20
2018-04-09T20:59:08.196Z,18.20
2018-04-09T21:01:35.035Z,18.20
2018-04-09T21:04:01.902Z,18.30
2018-04-09T21:06:28.781Z,18.30
2018-04-09T21:08:55.635Z,18.30
2018-04-09T21:11:22.506Z,18.20
2018-04-09T21:13:49.455Z,18.30
2018-04-09T21:16:16.793Z,18.10
2018-04-09T21:18:43.651Z,18.10
2018-04-09T21:21:10.495Z,18.00
2018-04-09T21:23:37.482Z,18.00
2018-04-09T21:26:04.338Z,18.00
2018-04-09T21:28:31.196Z,18.10
2018-04-09T21:30:58.097Z,18.10
2018-04-09T21:33:24.914Z,18.00
2018-04-09T21:35:51.796Z,17.80
2018-04-09T21:38:18.784Z,17.70
2018-04-09T21:40:45.632Z,17.60
2018-04-09T21:43:12.524Z,17.60
2018-04-09T21:45:39.769Z,17.50
2018-04-09T21:48:06.672Z,17.50
2018-04-09T21:50:33.527Z,17.40
2018-04-09T21:53:00.392Z,17.40
2018-04-09T21:55:27.288Z,17.40
2018-04-09T21:57:54.159Z,17.30
2018-04-09T22:00:21.435Z,17.20
2018-04-09T22:02:48.755Z,17.00
2018-04-09T22:05:15.700Z,17.00
2018-04-09T22:07:42.536Z,17.00
2018-04-09T22:10:09.407Z,17.00
2018-04-09T22:12:36.275Z,17.00
2018-04-09T22:15:03.127Z,17.00
2018-04-09T22:17:29.991Z,16.90
2018-04-09T22:19:56.855Z,17.00
2018-04-09T22:22:23.799Z,17.00
2018-04-09T22:24:50.659Z,17.10
2018-04-09T22:27:17.594Z,17.10
2018-04-09T22:29:44.567Z,17.10
2018-04-09T22:32:11.531Z,17.10
2018-04-09T22:34:38.478Z,17.20
2018-04-09T22:37:05.699Z,17.20
2018-04-09T22:39:32.658Z,17.20
2018-04-09T22:41:59.552Z,17.20
2018-04-09T22:44:26.440Z,17.30
2018-04-09T22:46:53.287Z,17.10
2018-04-09T22:49:20.271Z,16.80
2018-04-09T22:51:47.115Z,16.70
2018-04-09T22:54:14.058Z,16.40
2018-04-09T22:56:40.930Z,16.40
2018-04-09T22:59:07.778Z,16.40
2018-04-09T23:01:34.647Z,16.30
2018-04-09T23:04:01.591Z,16.00
2018-04-09T23:06:28.463Z,15.90
2018-04-09T23:08:55.412Z,15.90
2018-04-09T23:11:22.378Z,15.90
2018-04-09T23:13:49.239Z,15.80
2018-04-09T23:16:16.096Z,15.80
2018-04-09T23:18:43.039Z,15.80
2018-04-09T23:21:09.903Z,15.80
2018-04-09T23:23:36.762Z,15.90
2018-04-09T23:26:03.612Z,15.90
2018-04-09T23:28:30.495Z,16.00
2018-04-09T23:30:57.355Z,16.10
2018-04-09T23:33:24.303Z,16.20
2018-04-09T23:35:51.162Z,16.20
2018-04-09T23:38:18.092Z,16.20
2018-04-09T23:40:45.055Z,16.30
2018-04-09T23:43:11.911Z,16.50
2018-04-09T23:45:38.790Z,16.60
2018-04-09T23:48:05.658Z,16.70
2018-04-09T23:50:32.599Z,16.80
2018-04-09T23:52:59.556Z,16.80
2018-04-09T23:55:26.422Z,16.90
2018-04-09T23:57:53.372Z,16.90
